sensor_id;sensor_type;location;lat;lon;timestamp;P1;durP1;ratioP1;P2;durP2;ratioP2
41829;SDS011;38614;43.472;23.936;2024-01-16T00:00:03;38.65;;;19.75;;
41829;SDS011;38614;43.472;23.936;2024-01-16T00:02:51;52.67;;;21.42;;
41829;SDS011;38614;43.472;23.936;2024-01-16T00:05:39;61.03;;;23.52;;
41829;SDS011;38614;43.472;23.936;2024-01-16T00:08:29;66.07;;;25.05;;
41829;SDS011;38614;43.472;23.936;2024-01-16T00:11:17;56.85;;;24.17;;
41829;SDS011;38614;43.472;23.936;2024-01-16T00:14:05;46.70;;;22.75;;
41829;SDS011;38614;43.472;23.936;2024-01-16T00:16:53;45.08;;;24.38;;
41829;SDS011;38614;43.472;23.936;2024-01-16T00:19:43;47.80;;;21.85;;
41829;SDS011;38614;43.472;23.936;2024-01-16T00:22:31;48.10;;;22.83;;
41829;SDS011;38614;43.472;23.936;2024-01-16T00:25:19;47.05;;;21.52;;
41829;SDS011;38614;43.472;23.936;2024-01-16T00:28:07;50.83;;;20.98;;
41829;SDS011;38614;43.472;23.936;2024-01-16T00:30:55;51.60;;;23.00;;
41829;SDS011;38614;43.472;23.936;2024-01-16T00:33:42;54.25;;;22.13;;
41829;SDS011;38614;43.472;23.936;2024-01-16T00:36:30;48.83;;;23.50;;
41829;SDS011;38614;43.472;23.936;2024-01-16T00:39:18;49.47;;;22.20;;
41829;SDS011;38614;43.472;23.936;2024-01-16T00:42:06;57.75;;;23.63;;
41829;SDS011;38614;43.472;23.936;2024-01-16T00:44:56;46.30;;;24.50;;
41829;SDS011;38614;43.472;23.936;2024-01-16T00:47:44;45.90;;;23.55;;
41829;SDS011;38614;43.472;23.936;2024-01-16T00:50:34;66.97;;;26.83;;
41829;SDS011;38614;43.472;23.936;2024-01-16T00:53:21;53.55;;;26.42;;
41829;SDS011;38614;43.472;23.936;2024-01-16T00:56:10;56.83;;;27.27;;
41829;SDS011;38614;43.472;23.936;2024-01-16T00:58:58;57.88;;;27.15;;
41829;SDS011;38614;43.472;23.936;2024-01-16T01:01:46;57.25;;;26.90;;
41829;SDS011;38614;43.472;23.936;2024-01-16T01:39:45;53.03;;;23.48;;
41829;SDS011;38614;43.472;23.936;2024-01-16T01:42:33;54.50;;;23.20;;
41829;SDS011;38614;43.472;23.936;2024-01-16T01:45:20;55.85;;;22.15;;
41829;SDS011;38614;43.472;23.936;2024-01-16T01:48:09;51.38;;;21.83;;
41829;SDS011;38614;43.472;23.936;2024-01-16T01:50:58;48.85;;;21.75;;
41829;SDS011;38614;43.472;23.936;2024-01-16T01:53:46;45.42;;;21.98;;
41829;SDS011;38614;43.472;23.936;2024-01-16T01:56:35;43.83;;;21.83;;
41829;SDS011;38614;43.472;23.936;2024-01-16T01:59:23;48.30;;;19.58;;
41829;SDS011;38614;43.472;23.936;2024-01-16T02:02:11;53.92;;;21.05;;
41829;SDS011;38614;43.472;23.936;2024-01-16T02:05:02;41.83;;;18.90;;
41829;SDS011;38614;43.472;23.936;2024-01-16T02:07:51;56.30;;;21.30;;
41829;SDS011;38614;43.472;23.936;2024-01-16T02:10:40;52.45;;;20.63;;
41829;SDS011;38614;43.472;23.936;2024-01-16T02:13:31;40.38;;;18.25;;
41829;SDS011;38614;43.472;23.936;2024-01-16T02:16:22;39.45;;;18.25;;
41829;SDS011;38614;43.472;23.936;2024-01-16T02:19:11;40.00;;;19.88;;
41829;SDS011;38614;43.472;23.936;2024-01-16T02:22:00;34.97;;;16.75;;
41829;SDS011;38614;43.472;23.936;2024-01-16T02:27:39;37.45;;;16.92;;
41829;SDS011;38614;43.472;23.936;2024-01-16T02:30:26;38.03;;;16.42;;
41829;SDS011;38614;43.472;23.936;2024-01-16T02:33:14;40.95;;;18.42;;
41829;SDS011;38614;43.472;23.936;2024-01-16T02:36:02;30.77;;;14.60;;
41829;SDS011;38614;43.472;23.936;2024-01-16T02:38:50;31.85;;;16.63;;
41829;SDS011;38614;43.472;23.936;2024-01-16T02:41:38;29.15;;;12.25;;
41829;SDS011;38614;43.472;23.936;2024-01-16T02:44:29;27.23;;;13.02;;
41829;SDS011;38614;43.472;23.936;2024-01-16T02:47:17;32.35;;;15.20;;
41829;SDS011;38614;43.472;23.936;2024-01-16T02:50:04;34.28;;;14.25;;
41829;SDS011;38614;43.472;23.936;2024-01-16T02:52:52;30.90;;;13.35;;
41829;SDS011;38614;43.472;23.936;2024-01-16T02:55:40;23.15;;;12.25;;
41829;SDS011;38614;43.472;23.936;2024-01-16T02:58:30;25.48;;;12.23;;
41829;SDS011;38614;43.472;23.936;2024-01-16T03:01:18;25.13;;;11.73;;
41829;SDS011;38614;43.472;23.936;2024-01-16T03:04:06;23.25;;;12.52;;
41829;SDS011;38614;43.472;23.936;2024-01-16T03:06:54;25.02;;;11.70;;
41829;SDS011;38614;43.472;23.936;2024-01-16T03:09:42;31.15;;;15.20;;
41829;SDS011;38614;43.472;23.936;2024-01-16T03:12:29;29.98;;;14.05;;
41829;SDS011;38614;43.472;23.936;2024-01-16T03:15:17;25.95;;;12.43;;
41829;SDS011;38614;43.472;23.936;2024-01-16T03:18:07;24.20;;;11.80;;
41829;SDS011;38614;43.472;23.936;2024-01-16T03:20:55;28.95;;;11.60;;
41829;SDS011;38614;43.472;23.936;2024-01-16T03:23:46;19.73;;;9.25;;
41829;SDS011;38614;43.472;23.936;2024-01-16T03:26:34;24.10;;;10.73;;
41829;SDS011;38614;43.472;23.936;2024-01-16T03:29:21;18.02;;;9.18;;
41829;SDS011;38614;43.472;23.936;2024-01-16T03:32:11;24.67;;;11.73;;
41829;SDS011;38614;43.472;23.936;2024-01-16T03:34:59;20.25;;;9.65;;
41829;SDS011;38614;43.472;23.936;2024-01-16T03:37:46;19.35;;;11.40;;
41829;SDS011;38614;43.472;23.936;2024-01-16T03:40:34;17.40;;;8.38;;
41829;SDS011;38614;43.472;23.936;2024-01-16T03:43:22;21.63;;;10.55;;
41829;SDS011;38614;43.472;23.936;2024-01-16T03:46:10;20.35;;;9.75;;
41829;SDS011;38614;43.472;23.936;2024-01-16T03:48:58;21.98;;;10.18;;
41829;SDS011;38614;43.472;23.936;2024-01-16T03:51:46;24.33;;;10.32;;
41829;SDS011;38614;43.472;23.936;2024-01-16T03:54:35;22.55;;;10.27;;
41829;SDS011;38614;43.472;23.936;2024-01-16T03:57:22;21.10;;;9.90;;
41829;SDS011;38614;43.472;23.936;2024-01-16T04:00:12;20.80;;;10.32;;
41829;SDS011;38614;43.472;23.936;2024-01-16T04:03:02;23.20;;;9.48;;
41829;SDS011;38614;43.472;23.936;2024-01-16T04:05:51;17.67;;;8.57;;
41829;SDS011;38614;43.472;23.936;2024-01-16T04:08:38;13.45;;;8.00;;
41829;SDS011;38614;43.472;23.936;2024-01-16T04:11:27;16.52;;;8.73;;
41829;SDS011;38614;43.472;23.936;2024-01-16T04:14:17;14.43;;;7.72;;
41829;SDS011;38614;43.472;23.936;2024-01-16T04:17:08;12.13;;;5.95;;
41829;SDS011;38614;43.472;23.936;2024-01-16T04:19:59;8.95;;;5.38;;
41829;SDS011;38614;43.472;23.936;2024-01-16T04:22:46;11.25;;;5.68;;
41829;SDS011;38614;43.472;23.936;2024-01-16T04:25:37;11.65;;;4.63;;
41829;SDS011;38614;43.472;23.936;2024-01-16T04:28:25;7.32;;;4.82;;
41829;SDS011;38614;43.472;23.936;2024-01-16T04:31:13;9.40;;;4.53;;
41829;SDS011;38614;43.472;23.936;2024-01-16T04:34:01;6.97;;;4.30;;
41829;SDS011;38614;43.472;23.936;2024-01-16T04:36:49;6.60;;;3.72;;
41829;SDS011;38614;43.472;23.936;2024-01-16T04:39:36;8.82;;;3.58;;
41829;SDS011;38614;43.472;23.936;2024-01-16T04:42:25;5.25;;;3.08;;
41829;SDS011;38614;43.472;23.936;2024-01-16T04:45:13;3.00;;;2.20;;
41829;SDS011;38614;43.472;23.936;2024-01-16T04:48:00;2.20;;;1.02;;
41829;SDS011;38614;43.472;23.936;2024-01-16T04:50:48;4.47;;;1.83;;
41829;SDS011;38614;43.472;23.936;2024-01-16T04:53:36;2.40;;;0.52;;
41829;SDS011;38614;43.472;23.936;2024-01-16T04:56:24;1.13;;;0.32;;
41829;SDS011;38614;43.472;23.936;2024-01-16T04:59:12;1.17;;;0.10;;
41829;SDS011;38614;43.472;23.936;2024-01-16T05:02:03;0.82;;;0.13;;
41829;SDS011;38614;43.472;23.936;2024-01-16T05:04:51;0.30;;;0.20;;
41829;SDS011;38614;43.472;23.936;2024-01-16T05:07:44;0.32;;;0.00;;
41829;SDS011;38614;43.472;23.936;2024-01-16T05:10:32;0.45;;;0.15;;
41829;SDS011;38614;43.472;23.936;2024-01-16T05:13:20;0.50;;;0.00;;
41829;SDS011;38614;43.472;23.936;2024-01-16T05:16:08;2.15;;;1.17;;
41829;SDS011;38614;43.472;23.936;2024-01-16T05:18:55;0.98;;;0.17;;
41829;SDS011;38614;43.472;23.936;2024-01-16T05:21:43;0.20;;;0.10;;
41829;SDS011;38614;43.472;23.936;2024-01-16T05:24:31;0.20;;;0.00;;
41829;SDS011;38614;43.472;23.936;2024-01-16T05:27:19;0.15;;;0.00;;
41829;SDS011;38614;43.472;23.936;2024-01-16T05:30:06;0.00;;;0.00;;
41829;SDS011;38614;43.472;23.936;2024-01-16T05:32:55;0.55;;;0.28;;
41829;SDS011;38614;43.472;23.936;2024-01-16T05:35:48;1.85;;;0.00;;
41829;SDS011;38614;43.472;23.936;2024-01-16T05:38:36;0.17;;;0.00;;
41829;SDS011;38614;43.472;23.936;2024-01-16T05:41:25;0.75;;;0.05;;
41829;SDS011;38614;43.472;23.936;2024-01-16T05:44:12;1.73;;;0.70;;
41829;SDS011;38614;43.472;23.936;2024-01-16T05:47:00;2.00;;;0.55;;
41829;SDS011;38614;43.472;23.936;2024-01-16T05:49:48;0.77;;;0.55;;
41829;SDS011;38614;43.472;23.936;2024-01-16T05:52:36;2.60;;;0.88;;
41829;SDS011;38614;43.472;23.936;2024-01-16T05:55:25;2.80;;;0.55;;
41829;SDS011;38614;43.472;23.936;2024-01-16T05:58:13;0.77;;;0.47;;
41829;SDS011;38614;43.472;23.936;2024-01-16T06:01:01;0.25;;;0.17;;
41829;SDS011;38614;43.472;23.936;2024-01-16T06:03:49;3.00;;;0.63;;
41829;SDS011;38614;43.472;23.936;2024-01-16T06:06:37;2.20;;;0.40;;
41829;SDS011;38614;43.472;23.936;2024-01-16T06:09:26;0.13;;;0.00;;
41829;SDS011;38614;43.472;23.936;2024-01-16T06:12:14;0.20;;;0.00;;
41829;SDS011;38614;43.472;23.936;2024-01-16T06:15:02;0.10;;;0.10;;
41829;SDS011;38614;43.472;23.936;2024-01-16T06:17:50;1.13;;;0.03;;
41829;SDS011;38614;43.472;23.936;2024-01-16T06:20:37;1.17;;;0.10;;
41829;SDS011;38614;43.472;23.936;2024-01-16T06:23:25;0.30;;;0.08;;
41829;SDS011;38614;43.472;23.936;2024-01-16T06:26:13;7.72;;;0.38;;
41829;SDS011;38614;43.472;23.936;2024-01-16T06:29:01;1.85;;;0.13;;
41829;SDS011;38614;43.472;23.936;2024-01-16T06:31:48;0.50;;;0.17;;
41829;SDS011;38614;43.472;23.936;2024-01-16T06:34:36;0.40;;;0.20;;
41829;SDS011;38614;43.472;23.936;2024-01-16T06:37:26;0.38;;;0.10;;
41829;SDS011;38614;43.472;23.936;2024-01-16T06:40:14;0.90;;;0.38;;
41829;SDS011;38614;43.472;23.936;2024-01-16T06:43:04;2.65;;;0.75;;
41829;SDS011;38614;43.472;23.936;2024-01-16T06:45:56;1.15;;;0.57;;
41829;SDS011;38614;43.472;23.936;2024-01-16T06:48:43;7.72;;;1.00;;
41829;SDS011;38614;43.472;23.936;2024-01-16T06:51:31;5.95;;;0.50;;
41829;SDS011;38614;43.472;23.936;2024-01-16T06:54:19;3.65;;;0.43;;
41829;SDS011;38614;43.472;23.936;2024-01-16T06:57:07;6.65;;;1.42;;
41829;SDS011;38614;43.472;23.936;2024-01-16T06:59:56;3.50;;;0.47;;
41829;SDS011;38614;43.472;23.936;2024-01-16T07:02:43;10.43;;;1.90;;
41829;SDS011;38614;43.472;23.936;2024-01-16T07:05:32;10.02;;;1.27;;
41829;SDS011;38614;43.472;23.936;2024-01-16T07:08:20;8.85;;;1.55;;
41829;SDS011;38614;43.472;23.936;2024-01-16T07:11:08;8.77;;;2.08;;
41829;SDS011;38614;43.472;23.936;2024-01-16T07:14:00;2.67;;;1.30;;
41829;SDS011;38614;43.472;23.936;2024-01-16T07:16:47;1.17;;;0.57;;
41829;SDS011;38614;43.472;23.936;2024-01-16T07:19:35;5.57;;;0.63;;
41829;SDS011;38614;43.472;23.936;2024-01-16T07:22:23;0.30;;;0.10;;
41829;SDS011;38614;43.472;23.936;2024-01-16T07:25:10;0.45;;;0.17;;
41829;SDS011;38614;43.472;23.936;2024-01-16T07:27:58;1.70;;;0.88;;
41829;SDS011;38614;43.472;23.936;2024-01-16T07:30:46;0.73;;;0.38;;
41829;SDS011;38614;43.472;23.936;2024-01-16T07:33:34;0.17;;;0.10;;
41829;SDS011;38614;43.472;23.936;2024-01-16T07:36:22;0.57;;;0.25;;
41829;SDS011;38614;43.472;23.936;2024-01-16T07:39:09;0.40;;;0.32;;
41829;SDS011;38614;43.472;23.936;2024-01-16T07:41:57;0.68;;;0.30;;
41829;SDS011;38614;43.472;23.936;2024-01-16T07:44:45;1.60;;;0.55;;
41829;SDS011;38614;43.472;23.936;2024-01-16T07:47:33;0.88;;;0.45;;
41829;SDS011;38614;43.472;23.936;2024-01-16T07:50:21;1.67;;;0.20;;
41829;SDS011;38614;43.472;23.936;2024-01-16T07:53:08;2.80;;;0.40;;
41829;SDS011;38614;43.472;23.936;2024-01-16T07:55:56;1.48;;;0.22;;
41829;SDS011;38614;43.472;23.936;2024-01-16T07:58:44;1.65;;;0.70;;
41829;SDS011;38614;43.472;23.936;2024-01-16T08:01:31;0.90;;;0.68;;
41829;SDS011;38614;43.472;23.936;2024-01-16T08:04:19;0.38;;;0.25;;
41829;SDS011;38614;43.472;23.936;2024-01-16T08:07:07;0.57;;;0.10;;
41829;SDS011;38614;43.472;23.936;2024-01-16T08:09:55;0.50;;;0.20;;
41829;SDS011;38614;43.472;23.936;2024-01-16T08:12:43;0.80;;;0.28;;
41829;SDS011;38614;43.472;23.936;2024-01-16T08:15:31;1.25;;;0.45;;
41829;SDS011;38614;43.472;23.936;2024-01-16T08:18:19;2.10;;;0.77;;
41829;SDS011;38614;43.472;23.936;2024-01-16T08:21:06;1.17;;;0.40;;
41829;SDS011;38614;43.472;23.936;2024-01-16T08:23:55;0.70;;;0.40;;
41829;SDS011;38614;43.472;23.936;2024-01-16T08:26:42;1.17;;;0.55;;
41829;SDS011;38614;43.472;23.936;2024-01-16T08:29:30;1.35;;;0.57;;
41829;SDS011;38614;43.472;23.936;2024-01-16T08:32:18;1.27;;;0.43;;
41829;SDS011;38614;43.472;23.936;2024-01-16T08:35:07;1.83;;;0.50;;
41829;SDS011;38614;43.472;23.936;2024-01-16T08:37:54;14.05;;;0.70;;
41829;SDS011;38614;43.472;23.936;2024-01-16T08:40:42;2.30;;;0.60;;
41829;SDS011;38614;43.472;23.936;2024-01-16T08:43:30;7.00;;;0.57;;
41829;SDS011;38614;43.472;23.936;2024-01-16T08:46:17;0.95;;;0.73;;
41829;SDS011;38614;43.472;23.936;2024-01-16T08:49:08;0.40;;;0.25;;
41829;SDS011;38614;43.472;23.936;2024-01-16T08:51:57;0.88;;;0.47;;
41829;SDS011;38614;43.472;23.936;2024-01-16T08:54:45;4.55;;;0.50;;
41829;SDS011;38614;43.472;23.936;2024-01-16T08:57:32;0.55;;;0.45;;
41829;SDS011;38614;43.472;23.936;2024-01-16T09:00:20;1.90;;;0.50;;
41829;SDS011;38614;43.472;23.936;2024-01-16T09:03:08;1.10;;;0.55;;
41829;SDS011;38614;43.472;23.936;2024-01-16T09:05:56;1.75;;;0.47;;
41829;SDS011;38614;43.472;23.936;2024-01-16T09:08:43;0.93;;;0.50;;
41829;SDS011;38614;43.472;23.936;2024-01-16T09:11:31;5.55;;;0.43;;
41829;SDS011;38614;43.472;23.936;2024-01-16T09:14:19;1.67;;;0.77;;
41829;SDS011;38614;43.472;23.936;2024-01-16T09:17:08;1.05;;;0.40;;
41829;SDS011;38614;43.472;23.936;2024-01-16T09:19:56;0.47;;;0.25;;
41829;SDS011;38614;43.472;23.936;2024-01-16T09:22:44;0.38;;;0.22;;
41829;SDS011;38614;43.472;23.936;2024-01-16T09:25:32;1.20;;;0.45;;
41829;SDS011;38614;43.472;23.936;2024-01-16T09:28:19;3.67;;;1.23;;
41829;SDS011;38614;43.472;23.936;2024-01-16T09:31:07;6.60;;;1.75;;
41829;SDS011;38614;43.472;23.936;2024-01-16T09:33:58;4.93;;;0.40;;
41829;SDS011;38614;43.472;23.936;2024-01-16T09:36:46;0.50;;;0.30;;
41829;SDS011;38614;43.472;23.936;2024-01-16T09:39:34;2.25;;;0.20;;
41829;SDS011;38614;43.472;23.936;2024-01-16T09:42:23;1.15;;;0.20;;
41829;SDS011;38614;43.472;23.936;2024-01-16T09:45:11;0.50;;;0.20;;
41829;SDS011;38614;43.472;23.936;2024-01-16T09:48:04;0.40;;;0.10;;
41829;SDS011;38614;43.472;23.936;2024-01-16T09:50:52;1.38;;;0.28;;
41829;SDS011;38614;43.472;23.936;2024-01-16T09:53:40;0.35;;;0.30;;
41829;SDS011;38614;43.472;23.936;2024-01-16T09:56:28;1.85;;;0.40;;
41829;SDS011;38614;43.472;23.936;2024-01-16T09:59:17;2.80;;;0.77;;
41829;SDS011;38614;43.472;23.936;2024-01-16T10:02:09;2.33;;;0.98;;
41829;SDS011;38614;43.472;23.936;2024-01-16T10:04:57;0.38;;;0.22;;
41829;SDS011;38614;43.472;23.936;2024-01-16T10:07:45;2.50;;;0.85;;
41829;SDS011;38614;43.472;23.936;2024-01-16T10:10:35;1.50;;;0.52;;
41829;SDS011;38614;43.472;23.936;2024-01-16T10:13:37;1.70;;;0.70;;
41829;SDS011;38614;43.472;23.936;2024-01-16T10:19:32;3.97;;;0.73;;
41829;SDS011;38614;43.472;23.936;2024-01-16T10:22:37;4.88;;;0.73;;
41829;SDS011;38614;43.472;23.936;2024-01-16T10:25:27;0.82;;;0.47;;
41829;SDS011;38614;43.472;23.936;2024-01-16T10:28:19;2.65;;;0.45;;
41829;SDS011;38614;43.472;23.936;2024-01-16T10:31:12;1.55;;;0.30;;
41829;SDS011;38614;43.472;23.936;2024-01-16T10:34:01;1.17;;;0.30;;
41829;SDS011;38614;43.472;23.936;2024-01-16T10:36:53;2.00;;;0.45;;
41829;SDS011;38614;43.472;23.936;2024-01-16T10:39:49;1.75;;;0.88;;
41829;SDS011;38614;43.472;23.936;2024-01-16T10:42:37;1.92;;;0.73;;
41829;SDS011;38614;43.472;23.936;2024-01-16T10:45:25;1.65;;;0.55;;
41829;SDS011;38614;43.472;23.936;2024-01-16T10:48:14;2.47;;;0.75;;
41829;SDS011;38614;43.472;23.936;2024-01-16T10:51:04;1.65;;;0.73;;
41829;SDS011;38614;43.472;23.936;2024-01-16T10:53:56;1.60;;;0.60;;
41829;SDS011;38614;43.472;23.936;2024-01-16T10:56:45;2.40;;;0.57;;
41829;SDS011;38614;43.472;23.936;2024-01-16T11:02:47;1.45;;;1.35;;
41829;SDS011;38614;43.472;23.936;2024-01-16T11:05:38;2.22;;;0.80;;
41829;SDS011;38614;43.472;23.936;2024-01-16T11:08:28;2.08;;;0.70;;
41829;SDS011;38614;43.472;23.936;2024-01-16T11:11:20;3.67;;;0.82;;
41829;SDS011;38614;43.472;23.936;2024-01-16T11:14:08;1.23;;;0.80;;
41829;SDS011;38614;43.472;23.936;2024-01-16T11:16:56;1.17;;;0.70;;
41829;SDS011;38614;43.472;23.936;2024-01-16T11:19:45;5.45;;;0.75;;
41829;SDS011;38614;43.472;23.936;2024-01-16T11:22:56;4.60;;;0.65;;
41829;SDS011;38614;43.472;23.936;2024-01-16T11:25:47;1.23;;;0.65;;
41829;SDS011;38614;43.472;23.936;2024-01-16T11:28:35;2.17;;;0.90;;
41829;SDS011;38614;43.472;23.936;2024-01-16T11:31:33;2.33;;;0.45;;
41829;SDS011;38614;43.472;23.936;2024-01-16T11:37:28;1.02;;;0.52;;
41829;SDS011;38614;43.472;23.936;2024-01-16T11:46:21;3.38;;;1.23;;
41829;SDS011;38614;43.472;23.936;2024-01-16T11:49:11;14.82;;;5.75;;
41829;SDS011;38614;43.472;23.936;2024-01-16T11:52:06;3.83;;;2.97;;
41829;SDS011;38614;43.472;23.936;2024-01-16T11:57:52;27.02;;;9.73;;
41829;SDS011;38614;43.472;23.936;2024-01-16T12:00:47;6.40;;;2.90;;
41829;SDS011;38614;43.472;23.936;2024-01-16T12:03:40;6.80;;;3.95;;
41829;SDS011;38614;43.472;23.936;2024-01-16T12:06:30;2.97;;;2.65;;
41829;SDS011;38614;43.472;23.936;2024-01-16T12:09:19;5.03;;;2.22;;
41829;SDS011;38614;43.472;23.936;2024-01-16T12:12:07;8.98;;;4.85;;
41829;SDS011;38614;43.472;23.936;2024-01-16T12:14:55;3.55;;;2.42;;
41829;SDS011;38614;43.472;23.936;2024-01-16T12:18:01;7.78;;;2.08;;
41829;SDS011;38614;43.472;23.936;2024-01-16T12:20:51;3.22;;;1.52;;
41829;SDS011;38614;43.472;23.936;2024-01-16T12:23:39;3.65;;;2.38;;
41829;SDS011;38614;43.472;23.936;2024-01-16T12:26:42;5.72;;;1.95;;
41829;SDS011;38614;43.472;23.936;2024-01-16T12:29:30;4.85;;;2.40;;
41829;SDS011;38614;43.472;23.936;2024-01-16T12:32:18;2.28;;;1.80;;
41829;SDS011;38614;43.472;23.936;2024-01-16T12:35:07;24.05;;;9.45;;
41829;SDS011;38614;43.472;23.936;2024-01-16T12:38:05;5.45;;;2.63;;
41829;SDS011;38614;43.472;23.936;2024-01-16T12:40:53;18.88;;;7.82;;
41829;SDS011;38614;43.472;23.936;2024-01-16T12:43:41;4.70;;;3.35;;
41829;SDS011;38614;43.472;23.936;2024-01-16T12:46:28;11.35;;;5.97;;
41829;SDS011;38614;43.472;23.936;2024-01-16T12:49:16;8.80;;;4.47;;
41829;SDS011;38614;43.472;23.936;2024-01-16T12:52:14;4.43;;;2.70;;
41829;SDS011;38614;43.472;23.936;2024-01-16T12:55:04;6.35;;;2.70;;
41829;SDS011;38614;43.472;23.936;2024-01-16T13:04:39;5.60;;;2.55;;
41829;SDS011;38614;43.472;23.936;2024-01-16T13:07:32;7.53;;;1.73;;
41829;SDS011;38614;43.472;23.936;2024-01-16T13:10:26;2.83;;;1.30;;
41829;SDS011;38614;43.472;23.936;2024-01-16T13:13:17;5.28;;;1.48;;
41829;SDS011;38614;43.472;23.936;2024-01-16T13:16:05;9.80;;;2.10;;
41829;SDS011;38614;43.472;23.936;2024-01-16T13:19:02;4.75;;;1.63;;
41829;SDS011;38614;43.472;23.936;2024-01-16T13:21:52;2.53;;;1.02;;
41829;SDS011;38614;43.472;23.936;2024-01-16T13:24:41;1.67;;;1.25;;
41829;SDS011;38614;43.472;23.936;2024-01-16T13:27:43;4.82;;;2.25;;
41829;SDS011;38614;43.472;23.936;2024-01-16T13:30:31;5.43;;;1.55;;
41829;SDS011;38614;43.472;23.936;2024-01-16T13:33:33;1.60;;;0.70;;
41829;SDS011;38614;43.472;23.936;2024-01-16T13:36:21;2.72;;;1.10;;
41829;SDS011;38614;43.472;23.936;2024-01-16T13:39:29;1.85;;;1.45;;
41829;SDS011;38614;43.472;23.936;2024-01-16T13:42:23;1.17;;;1.08;;
41829;SDS011;38614;43.472;23.936;2024-01-16T13:45:11;7.30;;;3.00;;
41829;SDS011;38614;43.472;23.936;2024-01-16T13:48:02;4.68;;;1.83;;
41829;SDS011;38614;43.472;23.936;2024-01-16T13:50:50;6.15;;;1.70;;
41829;SDS011;38614;43.472;23.936;2024-01-16T13:53:38;1.92;;;1.20;;
41829;SDS011;38614;43.472;23.936;2024-01-16T13:56:29;2.05;;;1.40;;
41829;SDS011;38614;43.472;23.936;2024-01-16T13:59:37;4.20;;;2.42;;
41829;SDS011;38614;43.472;23.936;2024-01-16T14:02:26;6.60;;;2.80;;
41829;SDS011;38614;43.472;23.936;2024-01-16T14:05:14;8.05;;;3.90;;
41829;SDS011;38614;43.472;23.936;2024-01-16T14:08:05;3.50;;;2.20;;
41829;SDS011;38614;43.472;23.936;2024-01-16T14:10:53;2.92;;;1.80;;
41829;SDS011;38614;43.472;23.936;2024-01-16T14:13:41;8.70;;;5.30;;
41829;SDS011;38614;43.472;23.936;2024-01-16T14:16:30;9.65;;;4.70;;
41829;SDS011;38614;43.472;23.936;2024-01-16T14:19:37;9.05;;;3.22;;
41829;SDS011;38614;43.472;23.936;2024-01-16T14:22:25;5.18;;;2.35;;
41829;SDS011;38614;43.472;23.936;2024-01-16T14:25:15;3.03;;;1.90;;
41829;SDS011;38614;43.472;23.936;2024-01-16T14:28:06;16.40;;;5.68;;
41829;SDS011;38614;43.472;23.936;2024-01-16T14:31:04;7.07;;;1.70;;
41829;SDS011;38614;43.472;23.936;2024-01-16T14:33:51;3.72;;;2.50;;
41829;SDS011;38614;43.472;23.936;2024-01-16T14:36:43;5.63;;;1.85;;
41829;SDS011;38614;43.472;23.936;2024-01-16T14:39:30;9.98;;;2.45;;
41829;SDS011;38614;43.472;23.936;2024-01-16T14:42:18;4.80;;;2.65;;
41829;SDS011;38614;43.472;23.936;2024-01-16T14:45:06;5.25;;;2.53;;
41829;SDS011;38614;43.472;23.936;2024-01-16T14:47:55;5.50;;;3.15;;
41829;SDS011;38614;43.472;23.936;2024-01-16T14:50:43;8.00;;;3.20;;
41829;SDS011;38614;43.472;23.936;2024-01-16T14:53:32;6.70;;;3.83;;
41829;SDS011;38614;43.472;23.936;2024-01-16T14:56:19;9.30;;;3.85;;
41829;SDS011;38614;43.472;23.936;2024-01-16T14:59:07;7.63;;;4.15;;
41829;SDS011;38614;43.472;23.936;2024-01-16T15:02:01;9.88;;;3.67;;
41829;SDS011;38614;43.472;23.936;2024-01-16T15:05:02;18.98;;;4.03;;
41829;SDS011;38614;43.472;23.936;2024-01-16T15:07:51;17.13;;;5.28;;
41829;SDS011;38614;43.472;23.936;2024-01-16T15:10:39;9.88;;;4.00;;
41829;SDS011;38614;43.472;23.936;2024-01-16T15:13:27;14.27;;;5.80;;
41829;SDS011;38614;43.472;23.936;2024-01-16T15:16:16;11.07;;;5.95;;
41829;SDS011;38614;43.472;23.936;2024-01-16T15:19:04;17.70;;;7.78;;
41829;SDS011;38614;43.472;23.936;2024-01-16T15:21:52;12.50;;;6.43;;
41829;SDS011;38614;43.472;23.936;2024-01-16T15:24:41;10.65;;;5.80;;
41829;SDS011;38614;43.472;23.936;2024-01-16T15:27:30;9.48;;;4.72;;
41829;SDS011;38614;43.472;23.936;2024-01-16T15:30:18;9.07;;;4.65;;
41829;SDS011;38614;43.472;23.936;2024-01-16T15:33:06;12.90;;;5.68;;
41829;SDS011;38614;43.472;23.936;2024-01-16T15:35:54;12.30;;;6.07;;
41829;SDS011;38614;43.472;23.936;2024-01-16T15:38:43;23.15;;;11.50;;
41829;SDS011;38614;43.472;23.936;2024-01-16T15:41:31;20.13;;;10.60;;
41829;SDS011;38614;43.472;23.936;2024-01-16T15:44:19;28.58;;;10.25;;
41829;SDS011;38614;43.472;23.936;2024-01-16T15:47:09;22.70;;;8.35;;
41829;SDS011;38614;43.472;23.936;2024-01-16T15:49:57;48.15;;;15.68;;
41829;SDS011;38614;43.472;23.936;2024-01-16T15:52:45;44.70;;;16.55;;
41829;SDS011;38614;43.472;23.936;2024-01-16T15:55:33;58.10;;;20.33;;
41829;SDS011;38614;43.472;23.936;2024-01-16T15:58:20;87.80;;;31.85;;
41829;SDS011;38614;43.472;23.936;2024-01-16T16:01:09;100.25;;;36.67;;
41829;SDS011;38614;43.472;23.936;2024-01-16T16:03:56;86.22;;;31.55;;
41829;SDS011;38614;43.472;23.936;2024-01-16T16:06:48;71.53;;;34.85;;
41829;SDS011;38614;43.472;23.936;2024-01-16T16:09:35;349.20;;;134.50;;
41829;SDS011;38614;43.472;23.936;2024-01-16T16:12:23;222.60;;;90.40;;
41829;SDS011;38614;43.472;23.936;2024-01-16T16:15:11;105.93;;;47.20;;
41829;SDS011;38614;43.472;23.936;2024-01-16T16:18:00;74.38;;;34.05;;
41829;SDS011;38614;43.472;23.936;2024-01-16T16:20:49;70.15;;;33.20;;
41829;SDS011;38614;43.472;23.936;2024-01-16T16:23:37;74.78;;;34.50;;
41829;SDS011;38614;43.472;23.936;2024-01-16T16:29:20;133.57;;;56.70;;
41829;SDS011;38614;43.472;23.936;2024-01-16T16:32:08;108.05;;;51.60;;
41829;SDS011;38614;43.472;23.936;2024-01-16T16:34:56;117.53;;;52.30;;
41829;SDS011;38614;43.472;23.936;2024-01-16T16:37:44;98.07;;;42.55;;
41829;SDS011;38614;43.472;23.936;2024-01-16T16:40:31;111.90;;;51.97;;
41829;SDS011;38614;43.472;23.936;2024-01-16T16:43:19;115.63;;;52.33;;
41829;SDS011;38614;43.472;23.936;2024-01-16T16:46:08;99.75;;;49.30;;
41829;SDS011;38614;43.472;23.936;2024-01-16T16:48:55;104.63;;;45.67;;
41829;SDS011;38614;43.472;23.936;2024-01-16T16:51:43;91.93;;;42.70;;
41829;SDS011;38614;43.472;23.936;2024-01-16T16:54:33;76.00;;;35.88;;
41829;SDS011;38614;43.472;23.936;2024-01-16T16:57:21;62.25;;;31.90;;
41829;SDS011;38614;43.472;23.936;2024-01-16T17:00:09;155.60;;;51.58;;
41829;SDS011;38614;43.472;23.936;2024-01-16T17:02:58;124.43;;;41.10;;
41829;SDS011;38614;43.472;23.936;2024-01-16T17:05:46;64.55;;;26.90;;
41829;SDS011;38614;43.472;23.936;2024-01-16T17:08:35;66.75;;;28.10;;
41829;SDS011;38614;43.472;23.936;2024-01-16T17:11:23;106.38;;;42.00;;
41829;SDS011;38614;43.472;23.936;2024-01-16T17:14:15;117.22;;;45.53;;
41829;SDS011;38614;43.472;23.936;2024-01-16T17:17:03;110.88;;;46.38;;
41829;SDS011;38614;43.472;23.936;2024-01-16T17:19:51;153.05;;;56.50;;
41829;SDS011;38614;43.472;23.936;2024-01-16T17:22:39;135.40;;;54.20;;
41829;SDS011;38614;43.472;23.936;2024-01-16T17:25:27;150.70;;;57.70;;
41829;SDS011;38614;43.472;23.936;2024-01-16T17:28:17;183.02;;;74.95;;
41829;SDS011;38614;43.472;23.936;2024-01-16T17:31:06;84.10;;;36.85;;
41829;SDS011;38614;43.472;23.936;2024-01-16T17:33:55;80.50;;;35.45;;
41829;SDS011;38614;43.472;23.936;2024-01-16T17:36:43;81.90;;;34.03;;